createdAt,value
2023-02-05T14:43:35.506Z,17.30
2023-02-05T14:46:41.442Z,14.10
2023-02-05T14:49:27.667Z,11.40
2023-02-05T14:52:03.002Z,9.40
2023-02-05T14:54:52.207Z,8.20
2023-02-05T14:57:24.503Z,7.40
2023-02-05T15:00:04.398Z,6.90
2023-02-05T15:03:00.083Z,6.60
2023-02-05T15:05:40.686Z,6.40
2023-02-05T15:08:37.666Z,6.20
2023-02-05T15:11:24.953Z,6.10
2023-02-05T15:14:32.469Z,5.90
2023-02-05T15:17:09.777Z,5.80
2023-02-05T15:19:44.400Z,5.80
2023-02-05T15:22:40.867Z,5.70
2023-02-05T15:25:29.195Z,5.70
2023-02-05T15:28:07.166Z,5.70
2023-02-05T15:30:47.820Z,5.60
2023-02-05T15:33:29.375Z,5.60
2023-02-05T15:35:56.545Z,5.50
2023-02-05T15:38:43.854Z,5.50
2023-02-05T15:41:15.010Z,5.60
2023-02-05T15:43:56.506Z,5.50
2023-02-05T15:46:23.184Z,5.50
2023-02-05T15:48:50.627Z,5.50
2023-02-05T15:51:47.187Z,5.50
2023-02-05T15:54:20.055Z,5.60
2023-02-05T15:56:50.834Z,5.60
2023-02-05T15:59:25.391Z,5.60
2023-02-05T16:02:20.301Z,5.70
2023-02-05T16:04:55.423Z,5.70
2023-02-05T16:07:28.242Z,5.70
2023-02-05T16:10:00.473Z,5.70
2023-02-05T16:12:27.605Z,5.70
2023-02-05T16:15:13.123Z,5.70
2023-02-05T16:17:47.186Z,5.70
2023-02-05T16:20:51.608Z,5.70
2023-02-05T16:23:39.708Z,5.60
2023-02-05T16:26:23.547Z,5.50
2023-02-05T16:29:00.214Z,5.50
2023-02-05T16:31:28.945Z,5.50
2023-02-05T16:34:02.437Z,5.50
2023-02-05T16:36:34.848Z,5.50
2023-02-05T16:39:19.091Z,5.50
2023-02-05T16:41:46.148Z,5.50
2023-02-05T16:44:32.972Z,5.50
2023-02-05T16:47:21.207Z,5.50
2023-02-05T16:49:49.284Z,5.40
2023-02-05T16:52:30.843Z,5.40
2023-02-05T16:55:06.105Z,5.40
2023-02-05T16:57:37.056Z,5.40
2023-02-05T17:00:23.610Z,5.30
2023-02-05T17:02:55.329Z,5.20
2023-02-05T17:05:36.819Z,5.10
2023-02-05T17:08:08.426Z,5.10
2023-02-05T17:10:56.588Z,5.10
2023-02-05T17:13:30.342Z,5.00
2023-02-05T17:15:56.867Z,5.00
2023-02-05T17:18:30.246Z,5.00
2023-02-05T17:21:29.574Z,4.90
2023-02-05T17:23:58.750Z,4.90
2023-02-05T17:26:28.152Z,4.90
2023-02-05T17:29:01.218Z,4.90
2023-02-05T17:31:29.301Z,4.90
2023-02-05T17:33:57.854Z,5.00
2023-02-05T17:36:25.478Z,5.00
2023-02-05T17:38:52.893Z,4.90
2023-02-05T17:41:41.699Z,4.90
2023-02-05T17:44:13.148Z,4.90
2023-02-05T17:46:39.995Z,4.90
2023-02-05T17:49:06.531Z,4.90
2023-02-05T17:51:33.170Z,4.90
2023-02-05T17:53:59.915Z,4.90
2023-02-05T17:56:27.425Z,4.90
2023-02-05T17:58:55.668Z,5.00
2023-02-05T18:01:22.428Z,5.00
2023-02-05T18:03:49.096Z,4.90
2023-02-05T18:06:17.909Z,5.00
2023-02-05T18:08:45.466Z,5.10
2023-02-05T18:11:11.970Z,5.10
2023-02-05T18:13:38.472Z,5.10
2023-02-05T18:16:05.425Z,5.10
2023-02-05T18:18:34.474Z,5.20
2023-02-05T18:21:01.019Z,5.20
2023-02-05T18:23:29.450Z,5.20
2023-02-05T18:25:57.360Z,5.30
2023-02-05T18:28:24.325Z,5.20
2023-02-05T18:31:03.278Z,5.10
2023-02-05T18:33:30.186Z,5.10
2023-02-05T18:36:15.326Z,5.10
2023-02-05T18:38:45.345Z,5.00
2023-02-05T18:41:13.177Z,4.80
2023-02-05T18:43:40.271Z,4.80
2023-02-05T18:46:14.514Z,4.70
2023-02-05T18:48:41.790Z,4.50
2023-02-05T18:51:11.066Z,4.50
2023-02-05T18:53:39.183Z,4.50
2023-02-05T18:56:16.698Z,4.50
2023-02-05T18:58:44.618Z,4.60
2023-02-05T19:01:16.422Z,4.70
2023-02-05T19:03:43.697Z,4.80
2023-02-05T19:06:12.134Z,4.90
2023-02-05T19:08:39.010Z,4.90
2023-02-05T19:11:10.575Z,4.90
2023-02-05T19:13:37.490Z,5.00
2023-02-05T19:16:06.590Z,5.00
2023-02-05T19:18:33.375Z,5.00
2023-02-05T19:21:04.840Z,5.00
2023-02-05T19:23:31.355Z,5.10
2023-02-05T19:25:57.886Z,5.10
2023-02-05T19:28:24.398Z,5.10
2023-02-05T19:30:50.975Z,5.10
2023-02-05T19:33:17.574Z,5.10
2023-02-05T19:35:44.144Z,5.10
2023-02-05T19:38:10.674Z,5.10
2023-02-05T19:40:37.436Z,5.00
2023-02-05T19:43:04.232Z,5.00
2023-02-05T19:45:30.852Z,5.00
2023-02-05T19:47:57.391Z,5.00
2023-02-05T19:50:25.705Z,5.00
2023-02-05T19:52:53.102Z,4.90
2023-02-05T19:55:19.646Z,4.90
2023-02-05T19:57:46.217Z,4.90
2023-02-05T20:00:13.201Z,4.90
2023-02-05T20:02:39.731Z,5.00
2023-02-05T20:05:06.501Z,5.00
2023-02-05T20:07:37.995Z,5.00
2023-02-05T20:10:05.997Z,5.10
2023-02-05T20:12:32.551Z,5.10
2023-02-05T20:14:59.167Z,5.10
2023-02-05T20:17:25.718Z,5.10
2023-02-05T20:19:59.662Z,5.10
2023-02-05T20:22:32.331Z,5.10
2023-02-05T20:24:58.930Z,5.10
2023-02-05T20:27:25.519Z,5.00
2023-02-05T20:30:10.658Z,5.00
2023-02-05T20:32:37.183Z,5.00
2023-02-05T20:35:03.806Z,5.10
2023-02-05T20:37:30.383Z,5.00
2023-02-05T20:39:57.749Z,5.00
2023-02-05T20:42:24.314Z,5.00
2023-02-05T20:44:50.880Z,5.10
2023-02-05T20:47:17.403Z,5.10
2023-02-05T20:49:44.045Z,5.10
2023-02-05T20:52:11.222Z,5.10
2023-02-05T20:54:37.831Z,5.00
2023-02-05T20:57:04.456Z,5.10
2023-02-05T20:59:36.408Z,5.10
2023-02-05T21:02:03.824Z,5.10
2023-02-05T21:04:30.780Z,5.10
2023-02-05T21:06:58.233Z,5.00
2023-02-05T21:09:24.866Z,5.00
2023-02-05T21:11:55.168Z,4.90
2023-02-05T21:14:23.065Z,4.90
2023-02-05T21:16:49.643Z,4.90
2023-02-05T21:19:16.209Z,4.90
2023-02-05T21:21:42.766Z,4.90
2023-02-05T21:24:13.082Z,4.90
2023-02-05T21:26:42.215Z,4.90
2023-02-05T21:29:17.825Z,5.00
2023-02-05T21:31:46.989Z,5.00
2023-02-05T21:34:21.483Z,5.00
2023-02-05T21:36:48.350Z,5.00
2023-02-05T21:39:20.151Z,4.90
2023-02-05T21:41:47.406Z,5.00
2023-02-05T21:44:14.272Z,5.00
2023-02-05T21:46:41.074Z,5.00
2023-02-05T21:49:07.704Z,5.00
2023-02-05T21:51:35.364Z,5.00
2023-02-05T21:54:04.269Z,5.00
2023-02-05T21:56:34.462Z,4.90
2023-02-05T21:59:01.123Z,4.90
2023-02-05T22:01:29.918Z,5.00
2023-02-05T22:04:01.675Z,4.90
2023-02-05T22:06:31.544Z,5.00
2023-02-05T22:08:59.097Z,5.00
2023-02-05T22:11:26.463Z,5.00
2023-02-05T22:13:55.161Z,5.00
2023-02-05T22:16:24.902Z,5.00
2023-02-05T22:18:52.606Z,5.00
2023-02-05T22:21:22.169Z,5.10
2023-02-05T22:23:51.208Z,5.10
2023-02-05T22:26:20.386Z,5.10
2023-02-05T22:28:47.818Z,5.00
2023-02-05T22:31:17.145Z,5.00
2023-02-05T22:33:45.978Z,4.90
2023-02-05T22:36:17.859Z,4.90
2023-02-05T22:38:44.511Z,4.90
2023-02-05T22:41:20.204Z,4.90
2023-02-05T22:43:46.988Z,4.90
2023-02-05T22:46:16.405Z,4.90
2023-02-05T22:48:45.223Z,4.90
2023-02-05T22:51:14.317Z,4.90
2023-02-05T22:53:40.991Z,4.90
2023-02-05T22:56:12.601Z,4.90
2023-02-05T22:58:41.372Z,4.90
2023-02-05T23:01:13.893Z,4.90
2023-02-05T23:03:41.137Z,4.90
2023-02-05T23:06:12.132Z,4.90
2023-02-05T23:08:39.004Z,4.90
2023-02-05T23:11:10.486Z,4.90
2023-02-05T23:13:37.031Z,4.90
2023-02-05T23:16:12.456Z,4.90
2023-02-05T23:18:40.251Z,4.90
2023-02-05T23:21:12.078Z,4.90
2023-02-05T23:23:38.627Z,4.90
2023-02-05T23:26:07.328Z,5.00
2023-02-05T23:28:33.886Z,5.00
2023-02-05T23:31:00.504Z,5.00
2023-02-05T23:33:27.449Z,5.00
2023-02-05T23:35:55.048Z,4.90
2023-02-05T23:38:21.568Z,4.80
2023-02-05T23:40:48.063Z,4.80
2023-02-05T23:43:14.651Z,4.90
2023-02-05T23:45:42.541Z,4.90
2023-02-05T23:48:09.440Z,4.90
2023-02-05T23:50:36.379Z,4.80
2023-02-05T23:53:04.122Z,4.80
2023-02-05T23:55:31.251Z,4.80
2023-02-05T23:57:57.925Z,4.80
